createdAt,value
2019-06-10T00:00:31.586Z,20.40
2019-06-10T00:03:02.834Z,20.30
2019-06-10T00:05:31.990Z,20.30
2019-06-10T00:08:21.016Z,20.30
2019-06-10T00:10:51.083Z,20.30
2019-06-10T00:13:21.037Z,20.20
2019-06-10T00:15:51.589Z,20.20
2019-06-10T00:18:35.230Z,20.20
2019-06-10T00:20:51.918Z,20.20
2019-06-10T00:23:21.422Z,20.10
2019-06-10T00:25:51.567Z,20.10
2019-06-10T00:28:21.772Z,20.10
2019-06-10T00:30:51.673Z,20.10
2019-06-10T00:33:21.633Z,20.00
2019-06-10T00:35:51.523Z,19.90
2019-06-10T00:38:21.522Z,19.80
2019-06-10T00:40:51.382Z,19.80
2019-06-10T00:43:21.430Z,19.80
2019-06-10T00:45:51.426Z,19.80
2019-06-10T00:48:26.056Z,19.80
2019-06-10T00:50:53.359Z,19.80
2019-06-10T00:53:42.387Z,19.90
2019-06-10T00:56:14.001Z,19.90
2019-06-10T00:58:42.867Z,20.00
2019-06-10T01:01:14.442Z,19.90
2019-06-10T01:03:43.038Z,19.90
2019-06-10T01:06:15.136Z,19.90
2019-06-10T01:08:43.339Z,19.90
2019-06-10T01:11:23.674Z,19.80
2019-06-10T01:13:50.665Z,19.70
2019-06-10T01:16:21.483Z,19.60
2019-06-10T01:18:53.187Z,19.40
2019-06-10T01:21:21.819Z,19.50
2019-06-10T01:23:51.417Z,19.60
2019-06-10T01:26:21.504Z,19.70
2019-06-10T01:28:51.639Z,19.80
2019-06-10T01:31:24.217Z,19.70
2019-06-10T01:33:52.095Z,19.60
2019-06-10T01:36:21.334Z,19.60
2019-06-10T01:38:51.119Z,19.60
2019-06-10T01:41:40.911Z,19.60
2019-06-10T01:44:12.467Z,19.60
2019-06-10T01:47:01.087Z,19.60
2019-06-10T01:49:30.892Z,19.60
2019-06-10T01:52:01.622Z,19.50
2019-06-10T01:54:51.559Z,19.50
2019-06-10T01:57:21.949Z,19.50
2019-06-10T01:59:51.473Z,19.30
2019-06-10T02:02:23.907Z,19.40
2019-06-10T02:04:53.456Z,19.40
2019-06-10T02:07:23.372Z,19.30
2019-06-10T02:09:52.864Z,19.40
2019-06-10T02:12:24.106Z,19.40
2019-06-10T02:14:53.120Z,19.40
2019-06-10T02:17:41.814Z,19.40
2019-06-10T02:20:13.905Z,19.50
2019-06-10T02:22:42.598Z,19.50
2019-06-10T02:25:13.476Z,19.50
2019-06-10T02:27:43.207Z,19.50
2019-06-10T02:30:44.137Z,19.50
2019-06-10T02:33:02.863Z,19.40
2019-06-10T02:35:44.036Z,19.40
2019-06-10T02:38:05.232Z,19.50
2019-06-10T02:40:36.714Z,19.60
2019-06-10T02:43:06.706Z,19.60
2019-06-10T02:45:55.342Z,19.60
2019-06-10T02:48:30.386Z,19.60
2019-06-10T02:51:04.494Z,19.50
2019-06-10T02:53:36.388Z,19.50
2019-06-10T02:56:07.919Z,19.40
2019-06-10T02:58:39.518Z,19.20
2019-06-10T03:01:08.580Z,19.20
2019-06-10T03:03:44.598Z,19.10
2019-06-10T03:06:34.683Z,19.20
2019-06-10T03:08:59.134Z,19.10
2019-06-10T03:11:33.436Z,19.10
2019-06-10T03:13:59.303Z,19.10
2019-06-10T03:16:35.836Z,19.10
2019-06-10T03:19:05.324Z,19.00
2019-06-10T03:21:34.551Z,19.00
2019-06-10T03:24:03.896Z,19.10
2019-06-10T03:26:33.200Z,19.10
2019-06-10T03:29:02.790Z,19.20
2019-06-10T03:31:40.900Z,19.20
2019-06-10T03:34:05.068Z,19.20
2019-06-10T03:36:34.278Z,19.20
2019-06-10T03:39:05.606Z,19.20
2019-06-10T03:41:54.210Z,19.20
2019-06-10T03:44:25.116Z,19.20
2019-06-10T03:46:54.372Z,19.20
2019-06-10T03:49:24.298Z,19.20
2019-06-10T03:51:54.643Z,19.10
2019-06-10T03:54:26.402Z,19.20
2019-06-10T03:56:54.940Z,19.30
2019-06-10T03:59:26.507Z,19.30
2019-06-10T04:01:55.238Z,19.40
2019-06-10T04:04:25.593Z,19.30
2019-06-10T04:06:55.494Z,19.30
2019-06-10T04:09:25.828Z,19.30
2019-06-10T04:11:55.849Z,19.30
2019-06-10T04:14:44.482Z,19.30
2019-06-10T04:17:13.765Z,19.30
2019-06-10T04:19:43.064Z,19.30
2019-06-10T04:22:13.056Z,19.30
2019-06-10T04:24:43.116Z,19.20
2019-06-10T04:27:12.491Z,19.30
2019-06-10T04:29:42.180Z,19.20
2019-06-10T04:32:12.230Z,19.20
2019-06-10T04:34:43.323Z,19.20
2019-06-10T04:37:12.729Z,19.20
2019-06-10T04:39:42.742Z,19.20
2019-06-10T04:42:12.975Z,19.10
2019-06-10T04:44:42.507Z,19.20
2019-06-10T04:47:12.090Z,19.20
2019-06-10T04:49:42.826Z,19.20
2019-06-10T04:52:12.310Z,19.30
2019-06-10T04:54:42.130Z,19.30
2019-06-10T04:57:12.807Z,19.30
2019-06-10T04:59:42.874Z,19.40
2019-06-10T05:02:12.833Z,19.50
2019-06-10T05:04:42.658Z,19.70
2019-06-10T05:07:12.556Z,19.80
2019-06-10T05:09:42.320Z,19.90
2019-06-10T05:12:12.118Z,19.90
2019-06-10T05:14:43.277Z,20.00
2019-06-10T05:17:12.834Z,20.00
2019-06-10T05:20:02.566Z,20.10
2019-06-10T05:22:32.814Z,20.00
2019-06-10T05:25:02.757Z,20.00
2019-06-10T05:27:52.235Z,20.10
2019-06-10T05:30:25.047Z,20.20
2019-06-10T05:32:53.208Z,20.20
2019-06-10T05:35:28.468Z,20.30
2019-06-10T05:38:17.727Z,20.50
2019-06-10T05:40:47.075Z,20.50
2019-06-10T05:43:16.298Z,20.40
2019-06-10T05:45:45.523Z,20.60
2019-06-10T05:48:16.870Z,20.70
2019-06-10T05:50:59.301Z,20.80
2019-06-10T05:53:16.760Z,21.00
2019-06-10T05:56:05.358Z,21.00
2019-06-10T05:58:53.968Z,21.00
2019-06-10T06:01:24.284Z,21.10
2019-06-10T06:04:03.071Z,21.10
2019-06-10T06:06:33.432Z,21.10
2019-06-10T06:09:02.394Z,21.20
2019-06-10T06:11:33.765Z,21.20
2019-06-10T06:14:02.835Z,21.20
2019-06-10T06:16:33.106Z,21.30
2019-06-10T06:19:03.374Z,21.50
2019-06-10T06:21:40.331Z,21.50
2019-06-10T06:24:04.170Z,21.50
2019-06-10T06:26:37.628Z,21.60
2019-06-10T06:29:04.703Z,21.60
2019-06-10T06:31:36.090Z,21.60
2019-06-10T06:34:04.995Z,21.60
2019-06-10T06:36:36.424Z,21.60
2019-06-10T06:39:07.214Z,21.50
2019-06-10T06:41:55.816Z,21.50
2019-06-10T06:44:25.048Z,21.60
2019-06-10T06:47:13.648Z,21.50
2019-06-10T06:49:43.182Z,21.60
2019-06-10T06:52:12.786Z,21.80
2019-06-10T06:54:42.560Z,21.70
2019-06-10T06:57:13.054Z,21.80
2019-06-10T06:59:43.206Z,21.90
2019-06-10T07:02:12.707Z,22.00
2019-06-10T07:04:43.381Z,22.10
2019-06-10T07:07:14.727Z,22.20
2019-06-10T07:10:04.930Z,22.30
2019-06-10T07:12:54.982Z,22.40
2019-06-10T07:15:31.815Z,22.40
2019-06-10T07:18:02.313Z,22.40
2019-06-10T07:20:33.338Z,22.40
2019-06-10T07:23:02.800Z,22.50
2019-06-10T07:25:34.179Z,22.60
2019-06-10T07:28:03.299Z,22.70
2019-06-10T07:30:36.954Z,22.80
2019-06-10T07:33:03.725Z,22.80
2019-06-10T07:35:34.557Z,22.70
2019-06-10T07:38:04.290Z,23.00
2019-06-10T07:40:35.022Z,23.20
2019-06-10T07:43:04.577Z,23.50
2019-06-10T07:45:37.789Z,23.60
2019-06-10T07:48:24.277Z,23.70
2019-06-10T07:50:53.636Z,23.90
2019-06-10T07:53:22.962Z,24.20
2019-06-10T07:55:53.650Z,24.30
2019-06-10T07:58:23.093Z,24.20
2019-06-10T08:00:53.426Z,24.00
2019-06-10T08:03:23.041Z,23.90
2019-06-10T08:05:52.645Z,23.80
2019-06-10T08:08:23.537Z,23.80
2019-06-10T08:10:53.054Z,23.70
2019-06-10T08:13:22.686Z,23.80
2019-06-10T08:15:53.273Z,23.80
2019-06-10T08:18:22.722Z,23.80
2019-06-10T08:20:52.833Z,23.90
2019-06-10T08:23:44.722Z,24.20
2019-06-10T08:26:12.958Z,24.40
2019-06-10T08:28:45.101Z,24.40
2019-06-10T08:31:13.290Z,24.80
2019-06-10T08:33:45.386Z,25.10
2019-06-10T08:36:13.762Z,25.00
2019-06-10T08:38:46.636Z,25.00
2019-06-10T08:41:14.099Z,25.10
2019-06-10T08:43:46.143Z,25.40
2019-06-10T08:46:14.459Z,25.50
2019-06-10T08:48:46.147Z,25.60
2019-06-10T08:51:14.652Z,25.80
2019-06-10T08:53:46.495Z,26.10
2019-06-10T08:56:14.932Z,26.20
2019-06-10T08:58:47.382Z,26.60
2019-06-10T09:01:15.183Z,26.50
2019-06-10T09:04:04.250Z,26.80
2019-06-10T09:06:33.585Z,26.80
2019-06-10T09:09:04.524Z,26.60
2019-06-10T09:11:33.787Z,26.60
2019-06-10T09:14:05.111Z,26.60
2019-06-10T09:16:34.377Z,26.60
2019-06-10T09:19:03.814Z,27.00
2019-06-10T09:21:33.265Z,28.00
2019-06-10T09:24:03.956Z,29.00
2019-06-10T09:26:54.941Z,29.70
2019-06-10T09:29:23.687Z,29.80
2019-06-10T09:31:55.594Z,29.40
2019-06-10T09:34:23.972Z,29.70
2019-06-10T09:36:56.610Z,30.10
2019-06-10T09:39:24.390Z,30.90
2019-06-10T09:42:01.134Z,31.80
2019-06-10T09:44:24.811Z,32.80
2019-06-10T09:46:56.455Z,33.80
2019-06-10T09:49:26.895Z,34.10
2019-06-10T09:51:57.641Z,33.90
2019-06-10T09:54:27.076Z,33.90
2019-06-10T09:56:56.414Z,33.10
2019-06-10T09:59:25.838Z,32.10
2019-06-10T10:01:58.886Z,30.90
2019-06-10T10:04:27.019Z,30.30
2019-06-10T10:06:57.443Z,30.00
2019-06-10T10:09:27.157Z,30.50
2019-06-10T10:11:56.467Z,31.30
2019-06-10T10:14:25.722Z,32.30
2019-06-10T10:17:14.400Z,33.10
2019-06-10T10:19:46.859Z,33.50
2019-06-10T10:22:14.600Z,33.80
2019-06-10T10:24:44.613Z,34.40
2019-06-10T10:27:14.920Z,34.60
2019-06-10T10:29:47.105Z,34.70
2019-06-10T10:32:15.336Z,35.30
2019-06-10T10:34:47.012Z,35.80
2019-06-10T10:37:15.627Z,36.10
2019-06-10T10:39:45.224Z,36.40
2019-06-10T10:42:14.843Z,36.60
2019-06-10T10:44:46.638Z,36.60
2019-06-10T10:47:15.190Z,36.30
2019-06-10T10:49:44.991Z,35.90
2019-06-10T10:52:14.440Z,36.40
2019-06-10T10:54:45.104Z,37.10
2019-06-10T10:57:14.667Z,37.50
2019-06-10T10:59:45.085Z,37.50
2019-06-10T11:02:15.003Z,37.70
2019-06-10T11:04:49.685Z,37.80
2019-06-10T11:07:22.267Z,37.60
2019-06-10T11:09:55.199Z,37.40
2019-06-10T11:12:24.501Z,37.60
2019-06-10T11:14:57.040Z,38.30
2019-06-10T11:17:25.822Z,38.80
2019-06-10T11:19:55.953Z,38.40
2019-06-10T11:22:25.384Z,38.60
2019-06-10T11:24:56.507Z,38.00
2019-06-10T11:27:25.587Z,37.00
2019-06-10T11:30:14.343Z,36.10
2019-06-10T11:32:43.685Z,36.20
2019-06-10T11:35:13.242Z,37.20
2019-06-10T11:37:42.892Z,36.10
2019-06-10T11:40:13.538Z,34.40
2019-06-10T11:42:43.718Z,33.20
2019-06-10T11:45:13.521Z,32.20
2019-06-10T11:47:42.796Z,31.40
2019-06-10T11:50:13.157Z,30.80
2019-06-10T11:52:43.325Z,30.20
2019-06-10T11:55:18.774Z,29.60
2019-06-10T11:57:44.248Z,29.30
2019-06-10T12:00:17.441Z,29.00
2019-06-10T12:02:46.459Z,28.90
2019-06-10T12:05:35.131Z,28.80
2019-06-10T12:08:04.586Z,28.60
2019-06-10T12:10:34.113Z,29.00
2019-06-10T12:13:07.151Z,29.50
2019-06-10T12:16:09.642Z,29.70
2019-06-10T12:18:08.571Z,29.80
2019-06-10T12:20:36.691Z,29.60
2019-06-10T12:23:06.020Z,29.40
2019-06-10T12:25:39.524Z,29.20
2019-06-10T12:28:07.646Z,29.00
2019-06-10T12:30:37.395Z,29.00
2019-06-10T12:33:06.614Z,28.90
2019-06-10T12:35:35.890Z,28.90
2019-06-10T12:38:24.483Z,28.90
2019-06-10T12:40:56.841Z,28.90
2019-06-10T12:43:25.024Z,28.70
2019-06-10T12:45:55.931Z,28.50
2019-06-10T12:48:25.289Z,28.40
2019-06-10T12:50:57.309Z,28.40
2019-06-10T12:53:26.312Z,28.50
2019-06-10T12:55:57.253Z,28.60
2019-06-10T12:58:26.725Z,28.70
2019-06-10T13:00:57.133Z,28.70
2019-06-10T13:03:26.549Z,28.80
2019-06-10T13:05:59.590Z,28.80
2019-06-10T13:08:33.163Z,28.90
2019-06-10T13:11:04.436Z,28.90
2019-06-10T13:13:33.805Z,28.90
2019-06-10T13:16:06.780Z,29.00
2019-06-10T13:18:34.111Z,29.00
2019-06-10T13:21:10.918Z,29.00
2019-06-10T13:23:35.429Z,29.20
2019-06-10T13:26:11.907Z,29.50
2019-06-10T13:28:36.445Z,29.80
2019-06-10T13:31:08.010Z,29.80
2019-06-10T13:33:36.715Z,29.60
2019-06-10T13:36:08.250Z,29.30
2019-06-10T13:38:36.983Z,29.10
2019-06-10T13:41:07.802Z,28.80
2019-06-10T13:43:37.289Z,28.70
2019-06-10T13:46:08.994Z,28.50
2019-06-10T13:48:37.610Z,28.20
2019-06-10T13:51:10.128Z,28.00
2019-06-10T13:53:37.795Z,27.80
2019-06-10T13:56:30.425Z,27.60
2019-06-10T13:58:38.043Z,27.70
2019-06-10T14:01:10.102Z,27.80
2019-06-10T14:03:38.294Z,28.00
2019-06-10T14:06:20.817Z,28.30
2019-06-10T14:08:57.864Z,28.50
2019-06-10T14:11:30.090Z,28.60
2019-06-10T14:13:58.154Z,28.80
2019-06-10T14:16:27.539Z,29.00
2019-06-10T14:18:56.784Z,29.10
2019-06-10T14:21:26.557Z,29.10
2019-06-10T14:23:55.917Z,29.00
2019-06-10T14:26:36.651Z,29.10
2019-06-10T14:28:56.329Z,29.10
2019-06-10T14:31:39.406Z,29.10
2019-06-10T14:33:56.718Z,29.20
2019-06-10T14:36:26.034Z,29.20
2019-06-10T14:38:55.305Z,29.10
2019-06-10T14:41:34.973Z,29.10
2019-06-10T14:44:04.600Z,29.00
2019-06-10T14:46:33.996Z,28.90
2019-06-10T14:49:04.606Z,28.90
2019-06-10T14:51:34.046Z,28.90
2019-06-10T14:54:03.360Z,29.00
2019-06-10T14:56:33.275Z,29.10
2019-06-10T14:59:02.780Z,29.10
2019-06-10T15:01:32.233Z,29.10
2019-06-10T15:04:02.997Z,29.00
2019-06-10T15:06:33.877Z,28.80
2019-06-10T15:09:05.063Z,28.60
2019-06-10T15:11:34.435Z,28.30
2019-06-10T15:14:03.942Z,28.30
2019-06-10T15:16:33.696Z,28.30
2019-06-10T15:19:28.316Z,28.20
2019-06-10T15:21:53.354Z,28.00
2019-06-10T15:24:23.758Z,27.90
2019-06-10T15:27:09.101Z,27.70
2019-06-10T15:29:24.441Z,27.60
2019-06-10T15:32:08.920Z,27.40
2019-06-10T15:34:24.852Z,27.20
2019-06-10T15:36:54.212Z,27.00
2019-06-10T15:39:24.284Z,27.00
2019-06-10T15:41:55.551Z,27.00
2019-06-10T15:44:47.866Z,26.90
2019-06-10T15:46:55.757Z,26.80
2019-06-10T15:49:26.227Z,26.70
2019-06-10T15:51:55.654Z,26.10
2019-06-10T15:54:44.256Z,25.00
2019-06-10T15:57:27.296Z,24.00
2019-06-10T15:59:44.591Z,23.20
2019-06-10T16:02:16.120Z,22.80
2019-06-10T16:04:44.916Z,22.40
2019-06-10T16:07:33.590Z,22.10
2019-06-10T16:10:03.123Z,21.90
2019-06-10T16:12:33.037Z,21.90
2019-06-10T16:15:26.077Z,21.80
2019-06-10T16:17:53.656Z,21.70
2019-06-10T16:20:23.565Z,21.70
2019-06-10T16:23:13.779Z,21.80
2019-06-10T16:25:43.204Z,21.80
2019-06-10T16:28:32.839Z,21.90
2019-06-10T16:31:02.960Z,22.00
2019-06-10T16:33:33.912Z,22.20
2019-06-10T16:36:25.894Z,22.30
2019-06-10T16:38:53.804Z,22.40
2019-06-10T16:41:26.072Z,22.50
2019-06-10T16:43:54.103Z,22.60
2019-06-10T16:46:24.674Z,22.60
2019-06-10T16:48:54.139Z,22.70
2019-06-10T16:51:43.021Z,22.80
2019-06-10T16:54:13.011Z,22.90
2019-06-10T16:56:43.540Z,23.00
2019-06-10T16:59:13.162Z,23.10
2019-06-10T17:01:42.865Z,23.20
2019-06-10T17:04:12.580Z,23.20
2019-06-10T17:06:42.320Z,23.20
2019-06-10T17:09:13.447Z,23.30
2019-06-10T17:11:43.015Z,23.40
2019-06-10T17:14:12.677Z,23.50
2019-06-10T17:16:42.081Z,23.50
2019-06-10T17:19:11.565Z,23.40
2019-06-10T17:21:42.191Z,23.20
2019-06-10T17:24:12.760Z,23.10
2019-06-10T17:26:42.567Z,22.80
2019-06-10T17:29:12.047Z,22.60
2019-06-10T17:31:42.568Z,22.50
2019-06-10T17:34:13.105Z,22.40
2019-06-10T17:36:42.830Z,22.40
2019-06-10T17:39:12.596Z,22.40
2019-06-10T17:41:42.700Z,22.30
2019-06-10T17:44:14.425Z,22.30
2019-06-10T17:46:43.880Z,22.30
2019-06-10T17:49:13.237Z,22.40
2019-06-10T17:51:43.266Z,22.50
2019-06-10T17:54:13.088Z,22.70
2019-06-10T17:56:42.769Z,22.70
2019-06-10T17:59:34.084Z,22.70
2019-06-10T18:02:03.097Z,22.50
2019-06-10T18:04:33.705Z,22.30
2019-06-10T18:07:03.307Z,22.20
2019-06-10T18:09:35.433Z,22.10
2019-06-10T18:12:05.513Z,22.10
2019-06-10T18:14:36.266Z,22.10
2019-06-10T18:17:05.810Z,22.10
2019-06-10T18:19:37.321Z,22.30
2019-06-10T18:22:06.168Z,22.40
2019-06-10T18:24:35.507Z,22.40
2019-06-10T18:27:04.879Z,22.50
2019-06-10T18:29:35.873Z,22.60
2019-06-10T18:32:05.242Z,22.50
2019-06-10T18:34:37.486Z,22.50
2019-06-10T18:37:05.596Z,22.50
2019-06-10T18:39:35.662Z,22.40
2019-06-10T18:42:05.348Z,22.40
2019-06-10T18:44:37.100Z,22.30
2019-06-10T18:47:05.751Z,22.30
2019-06-10T18:49:36.235Z,22.10
2019-06-10T18:52:06.396Z,21.90
2019-06-10T18:54:37.221Z,21.70
2019-06-10T18:57:06.812Z,21.70
2019-06-10T18:59:37.691Z,21.70
2019-06-10T19:02:26.513Z,21.60
2019-06-10T19:04:55.788Z,21.70
2019-06-10T19:07:25.055Z,21.70
2019-06-10T19:09:54.353Z,21.70
2019-06-10T19:12:23.674Z,21.70
2019-06-10T19:14:53.084Z,21.70
2019-06-10T19:17:23.172Z,21.60
2019-06-10T19:19:53.306Z,21.40
2019-06-10T19:22:23.007Z,21.30
2019-06-10T19:24:52.978Z,21.20
2019-06-10T19:27:23.698Z,21.00
2019-06-10T19:29:55.876Z,20.90
2019-06-10T19:32:24.456Z,20.80
2019-06-10T19:34:53.825Z,20.70
2019-06-10T19:37:23.091Z,20.80
2019-06-10T19:40:12.421Z,20.90
2019-06-10T19:42:44.487Z,20.80
2019-06-10T19:45:13.342Z,20.80
2019-06-10T19:47:45.571Z,20.80
2019-06-10T19:50:13.923Z,20.80
2019-06-10T19:52:45.279Z,20.90
2019-06-10T19:55:14.501Z,20.80
2019-06-10T19:57:43.814Z,20.70
2019-06-10T20:00:13.935Z,20.50
2019-06-10T20:02:45.197Z,20.40
2019-06-10T20:05:14.843Z,20.20
2019-06-10T20:08:03.506Z,20.20
2019-06-10T20:10:34.021Z,20.30
2019-06-10T20:13:03.565Z,20.20
2019-06-10T20:15:32.926Z,20.20
2019-06-10T20:18:02.910Z,20.30
2019-06-10T20:20:54.023Z,20.30
2019-06-10T20:23:45.751Z,20.20
2019-06-10T20:26:14.181Z,20.40
2019-06-10T20:28:45.313Z,20.50
2019-06-10T20:31:14.403Z,20.70
2019-06-10T20:33:44.710Z,20.80
2019-06-10T20:36:21.953Z,20.90
2019-06-10T20:38:47.238Z,20.90
2019-06-10T20:41:16.015Z,20.90
2019-06-10T20:43:57.741Z,20.90
2019-06-10T20:46:26.984Z,21.00
2019-06-10T20:48:56.302Z,20.80
2019-06-10T20:51:27.267Z,20.60
2019-06-10T20:53:56.509Z,20.50
2019-06-10T20:56:25.926Z,20.70
2019-06-10T20:59:02.713Z,20.80
2019-06-10T21:01:33.505Z,20.80
2019-06-10T21:04:23.015Z,20.80
2019-06-10T21:06:54.198Z,20.80
2019-06-10T21:09:25.334Z,20.80
2019-06-10T21:11:54.659Z,20.60
2019-06-10T21:14:24.149Z,20.60
2019-06-10T21:16:53.758Z,20.50
2019-06-10T21:19:23.488Z,20.60
2019-06-10T21:21:54.716Z,20.70
2019-06-10T21:24:23.879Z,20.60
2019-06-10T21:26:54.736Z,20.40
2019-06-10T21:29:24.359Z,20.40
2019-06-10T21:31:54.868Z,20.20
2019-06-10T21:34:24.588Z,19.90
2019-06-10T21:36:54.475Z,19.70
2019-06-10T21:39:24.183Z,19.70
2019-06-10T21:41:54.633Z,19.60
2019-06-10T21:44:24.187Z,19.70
2019-06-10T21:46:53.535Z,19.70
2019-06-10T21:49:27.416Z,19.70
2019-06-10T21:51:57.335Z,19.80
2019-06-10T21:54:26.724Z,19.80
2019-06-10T21:56:56.003Z,19.80
2019-06-10T21:59:25.345Z,19.80
2019-06-10T22:01:54.678Z,19.70
2019-06-10T22:04:24.000Z,19.80
2019-06-10T22:06:55.967Z,19.90
2019-06-10T22:09:24.295Z,20.10
2019-06-10T22:11:55.643Z,20.10
2019-06-10T22:14:24.653Z,20.20
2019-06-10T22:16:56.209Z,20.20
2019-06-10T22:19:25.013Z,20.20
2019-06-10T22:21:56.445Z,20.30
2019-06-10T22:24:25.250Z,20.40
2019-06-10T22:26:55.196Z,20.30
2019-06-10T22:29:25.493Z,20.30
2019-06-10T22:31:55.743Z,20.20
2019-06-10T22:34:25.794Z,20.30
2019-06-10T22:36:56.159Z,20.30
2019-06-10T22:39:26.022Z,20.30
2019-06-10T22:41:56.849Z,20.10
2019-06-10T22:44:26.493Z,20.10
2019-06-10T22:46:57.299Z,20.10
2019-06-10T22:49:46.146Z,20.10
2019-06-10T22:52:15.537Z,20.10
2019-06-10T22:54:44.885Z,20.10
2019-06-10T22:57:14.145Z,20.10
2019-06-10T22:59:43.436Z,20.00
2019-06-10T23:02:13.147Z,20.10
2019-06-10T23:04:43.421Z,20.10
2019-06-10T23:07:13.295Z,20.20
2019-06-10T23:09:43.022Z,20.20
2019-06-10T23:12:12.359Z,20.20
2019-06-10T23:14:43.367Z,20.10
2019-06-10T23:17:14.222Z,19.90
2019-06-10T23:19:43.706Z,19.90
2019-06-10T23:22:12.956Z,19.90
2019-06-10T23:24:42.641Z,19.90
2019-06-10T23:27:13.118Z,19.90
2019-06-10T23:29:42.833Z,20.00
2019-06-10T23:32:12.943Z,19.90
2019-06-10T23:34:42.513Z,19.90
2019-06-10T23:37:12.599Z,19.70
2019-06-10T23:39:42.626Z,19.80
2019-06-10T23:42:12.292Z,19.90
2019-06-10T23:44:41.704Z,19.90
2019-06-10T23:47:12.735Z,19.90
2019-06-10T23:50:04.225Z,19.90
2019-06-10T23:52:32.981Z,19.80
2019-06-10T23:55:04.500Z,19.70
2019-06-10T23:57:34.129Z,19.70
